AUA10A LOWW-LOWI
Flight info
| Callsign | AUA10A |
|---|---|
| Flight time | N/A |
| Altitude | 28000 |
| Route | SOVIL DCT SITNI DCT BAGSI DCT NANIT NANIT2A |
| Aircraft | A321/M-SDE3FGHIRWY/LB1 |
Departure
| Time | 2026-04-24 11:14 |
|---|---|
| Airport | Vienna International Airport (LOWW) |
Arrival
| Time | N/A |
|---|---|
| Airport | Innsbruck Airport (LOWI) |
| Time | Latitude | Longitude | Altitude | Speed | Heading |
|---|---|---|---|---|---|
| 2026-04-24 10:23 | 48.11469 | 16.57017 | 610 ft | 0 kts | 207° |
| 2026-04-24 11:04 | 48.11468 | 16.57016 | 611 ft | 1 kts | 207° |
| 2026-04-24 11:04 | 48.11424 | 16.56984 | 618 ft | 8 kts | 199° |
| 2026-04-24 11:04 | 48.11403 | 16.56996 | 615 ft | 3 kts | 138° |
| 2026-04-24 11:05 | 48.11386 | 16.57020 | 612 ft | 4 kts | 135° |
| 2026-04-24 11:05 | 48.11344 | 16.57053 | 617 ft | 12 kts | 177° |
| 2026-04-24 11:05 | 48.11270 | 16.57089 | 618 ft | 10 kts | 129° |
| 2026-04-24 11:05 | 48.11238 | 16.57178 | 621 ft | 9 kts | 115° |
| 2026-04-24 11:06 | 48.11214 | 16.57258 | 611 ft | 8 kts | 115° |
| 2026-04-24 11:06 | 48.11193 | 16.57325 | 620 ft | 7 kts | 115° |
| 2026-04-24 11:06 | 48.11176 | 16.57380 | 615 ft | 5 kts | 116° |
| 2026-04-24 11:06 | 48.11160 | 16.57426 | 617 ft | 4 kts | 116° |
| 2026-04-24 11:07 | 48.11078 | 16.57678 | 621 ft | 18 kts | 116° |
| 2026-04-24 11:07 | 48.11004 | 16.57805 | 612 ft | 15 kts | 153° |
| 2026-04-24 11:07 | 48.10909 | 16.57852 | 617 ft | 14 kts | 164° |
| 2026-04-24 11:08 | 48.10814 | 16.57892 | 611 ft | 14 kts | 164° |
| 2026-04-24 11:08 | 48.10727 | 16.57929 | 615 ft | 12 kts | 164° |
| 2026-04-24 11:08 | 48.10652 | 16.57960 | 614 ft | 10 kts | 164° |
| 2026-04-24 11:08 | 48.10589 | 16.57987 | 617 ft | 9 kts | 164° |
| 2026-04-24 11:09 | 48.10526 | 16.58013 | 611 ft | 23 kts | 164° |
| 2026-04-24 11:09 | 48.10306 | 16.58107 | 617 ft | 24 kts | 164° |
| 2026-04-24 11:09 | 48.10150 | 16.58173 | 622 ft | 22 kts | 164° |
| 2026-04-24 11:09 | 48.10008 | 16.58233 | 611 ft | 21 kts | 164° |
| 2026-04-24 11:10 | 48.09876 | 16.58288 | 612 ft | 19 kts | 164° |
| 2026-04-24 11:10 | 48.09758 | 16.58337 | 621 ft | 17 kts | 164° |
| 2026-04-24 11:10 | 48.09652 | 16.58381 | 612 ft | 15 kts | 165° |
| 2026-04-24 11:10 | 48.09587 | 16.58409 | 618 ft | 16 kts | 164° |
| 2026-04-24 11:11 | 48.09436 | 16.58472 | 622 ft | 26 kts | 164° |
| 2026-04-24 11:11 | 48.09268 | 16.58544 | 621 ft | 24 kts | 164° |
| 2026-04-24 11:11 | 48.09089 | 16.58620 | 617 ft | 17 kts | 164° |
| 2026-04-24 11:11 | 48.08985 | 16.58675 | 615 ft | 15 kts | 151° |
| 2026-04-24 11:12 | 48.08935 | 16.58761 | 612 ft | 7 kts | 115° |
| 2026-04-24 11:12 | 48.08921 | 16.58830 | 612 ft | 8 kts | 98° |
| 2026-04-24 11:12 | 48.08929 | 16.58910 | 622 ft | 14 kts | 71° |
| 2026-04-24 11:12 | 48.08985 | 16.59013 | 622 ft | 13 kts | 31° |
| 2026-04-24 11:13 | 48.09062 | 16.59049 | 621 ft | 11 kts | 358° |
| 2026-04-24 11:13 | 48.09121 | 16.59026 | 616 ft | 0 kts | 343° |
| 2026-04-24 11:13 | 48.09122 | 16.59025 | 618 ft | 6 kts | 343° |
| 2026-04-24 11:13 | 48.09406 | 16.58899 | 610 ft | 76 kts | 344° |
| 2026-04-24 11:14 | 48.10096 | 16.58604 | 623 ft | 128 kts | 343° |
| 2026-04-24 11:14 | 48.11078 | 16.58186 | 659 ft | 163 kts | 344° |
| 2026-04-24 11:14 | 48.12169 | 16.57774 | 1316 ft | 158 kts | 345° |
| 2026-04-24 11:14 | 48.13138 | 16.57097 | 1932 ft | 157 kts | 311° |
| 2026-04-24 11:15 | 48.13473 | 16.55468 | 2127 ft | 184 kts | 264° |
| 2026-04-24 11:15 | 48.12817 | 16.53721 | 2361 ft | 208 kts | 230° |
| 2026-04-24 11:15 | 48.11748 | 16.52219 | 2823 ft | 213 kts | 224° |
| 2026-04-24 11:15 | 48.10610 | 16.50791 | 3271 ft | 216 kts | 224° |
| 2026-04-24 11:16 | 48.09459 | 16.49329 | 3802 ft | 217 kts | 226° |
| 2026-04-24 11:16 | 48.08323 | 16.47833 | 4423 ft | 217 kts | 227° |
| 2026-04-24 11:16 | 48.07189 | 16.46320 | 4978 ft | 225 kts | 227° |
| 2026-04-24 11:16 | 48.05941 | 16.44718 | 5192 ft | 248 kts | 226° |
| 2026-04-24 11:17 | 48.04571 | 16.42976 | 5517 ft | 266 kts | 225° |
| 2026-04-24 11:17 | 48.03145 | 16.41160 | 6133 ft | 272 kts | 226° |
| 2026-04-24 11:17 | 48.01697 | 16.39308 | 6782 ft | 276 kts | 226° |
| 2026-04-24 11:17 | 48.00249 | 16.37442 | 7409 ft | 281 kts | 226° |
| 2026-04-24 11:18 | 47.98763 | 16.35519 | 8033 ft | 285 kts | 226° |
| 2026-04-24 11:18 | 47.97443 | 16.33332 | 8621 ft | 283 kts | 243° |
| 2026-04-24 11:18 | 47.96643 | 16.30679 | 9222 ft | 280 kts | 260° |
| 2026-04-24 11:18 | 47.96427 | 16.27810 | 9813 ft | 278 kts | 277° |
| 2026-04-24 11:19 | 47.96679 | 16.24934 | 10234 ft | 287 kts | 282° |
| 2026-04-24 11:19 | 47.96984 | 16.21891 | 10359 ft | 307 kts | 282° |
| 2026-04-24 11:19 | 47.97301 | 16.18643 | 10482 ft | 325 kts | 281° |
| 2026-04-24 11:19 | 47.97625 | 16.15225 | 10715 ft | 338 kts | 281° |
| 2026-04-24 11:20 | 47.97945 | 16.11773 | 11180 ft | 343 kts | 281° |
| 2026-04-24 11:20 | 47.98268 | 16.08231 | 11707 ft | 346 kts | 281° |
| 2026-04-24 11:20 | 47.98597 | 16.04651 | 12182 ft | 350 kts | 281° |
| 2026-04-24 11:20 | 47.98929 | 16.01036 | 12710 ft | 354 kts | 281° |
| 2026-04-24 11:21 | 47.99264 | 15.97380 | 13228 ft | 358 kts | 281° |
| 2026-04-24 11:21 | 47.99601 | 15.93680 | 13749 ft | 361 kts | 281° |
| 2026-04-24 11:21 | 47.99943 | 15.89938 | 14220 ft | 365 kts | 281° |
| 2026-04-24 11:21 | 48.00285 | 15.86222 | 14682 ft | 368 kts | 282° |
| 2026-04-24 11:22 | 48.00632 | 15.82423 | 15132 ft | 370 kts | 283° |
| 2026-04-24 11:22 | 48.00978 | 15.78605 | 15656 ft | 372 kts | 283° |
| 2026-04-24 11:22 | 48.01324 | 15.74766 | 16086 ft | 375 kts | 281° |
| 2026-04-24 11:22 | 48.01674 | 15.70885 | 16515 ft | 378 kts | 282° |
| 2026-04-24 11:23 | 48.02026 | 15.66975 | 16944 ft | 382 kts | 281° |
| 2026-04-24 11:23 | 48.02378 | 15.63036 | 17411 ft | 384 kts | 283° |
| 2026-04-24 11:23 | 48.02731 | 15.59070 | 17858 ft | 386 kts | 281° |
| 2026-04-24 11:23 | 48.03081 | 15.55080 | 18268 ft | 388 kts | 282° |
| 2026-04-24 11:24 | 48.03431 | 15.51072 | 18653 ft | 390 kts | 281° |
| 2026-04-24 11:24 | 48.03781 | 15.47090 | 18953 ft | 393 kts | 281° |
| 2026-04-24 11:24 | 48.04142 | 15.43032 | 19253 ft | 396 kts | 280° |
| 2026-04-24 11:24 | 48.04507 | 15.38942 | 19552 ft | 398 kts | 279° |
| 2026-04-24 11:25 | 48.04687 | 15.34779 | 19843 ft | 403 kts | 275° |
| 2026-04-24 11:25 | 48.04759 | 15.30580 | 20134 ft | 406 kts | 274° |
| 2026-04-24 11:25 | 48.04829 | 15.26348 | 20419 ft | 408 kts | 275° |
| 2026-04-24 11:25 | 48.04899 | 15.22102 | 20718 ft | 410 kts | 275° |
| 2026-04-24 11:26 | 48.04967 | 15.17828 | 21045 ft | 412 kts | 274° |
| 2026-04-24 11:26 | 48.05031 | 15.13604 | 21355 ft | 414 kts | 274° |
| 2026-04-24 11:26 | 48.05092 | 15.09285 | 21670 ft | 416 kts | 275° |
| 2026-04-24 11:26 | 48.05153 | 15.04953 | 21990 ft | 419 kts | 274° |
| 2026-04-24 11:27 | 48.05212 | 15.00594 | 22320 ft | 420 kts | 273° |
| 2026-04-24 11:27 | 48.05269 | 14.96235 | 22673 ft | 422 kts | 273° |
| 2026-04-24 11:27 | 48.05323 | 14.91863 | 22995 ft | 424 kts | 274° |
| 2026-04-24 11:27 | 48.05376 | 14.87442 | 23300 ft | 427 kts | 274° |
| 2026-04-24 11:28 | 48.05429 | 14.82989 | 23637 ft | 429 kts | 272° |
| 2026-04-24 11:28 | 48.05478 | 14.78517 | 23929 ft | 431 kts | 272° |
| 2026-04-24 11:28 | 48.05520 | 14.74095 | 24204 ft | 433 kts | 273° |
| 2026-04-24 11:28 | 48.05556 | 14.69585 | 24463 ft | 435 kts | 274° |
| 2026-04-24 11:29 | 48.05587 | 14.65052 | 24717 ft | 437 kts | 273° |
| 2026-04-24 11:29 | 48.05615 | 14.60509 | 24986 ft | 439 kts | 272° |
| 2026-04-24 11:29 | 48.05644 | 14.55935 | 25256 ft | 440 kts | 272° |
| 2026-04-24 11:29 | 48.05674 | 14.51355 | 25503 ft | 442 kts | 273° |
| 2026-04-24 11:30 | 48.05702 | 14.46737 | 25744 ft | 445 kts | 273° |
| 2026-04-24 11:30 | 48.05728 | 14.42116 | 26020 ft | 446 kts | 274° |
| 2026-04-24 11:30 | 48.05751 | 14.37536 | 26290 ft | 447 kts | 273° |
| 2026-04-24 11:30 | 48.05672 | 14.32874 | 26538 ft | 451 kts | 267° |
| 2026-04-24 11:31 | 48.05119 | 14.28247 | 26755 ft | 456 kts | 257° |
| 2026-04-24 11:31 | 48.04051 | 14.23760 | 26997 ft | 460 kts | 248° |
| 2026-04-24 11:31 | 48.02645 | 14.19488 | 27258 ft | 462 kts | 245° |
| 2026-04-24 11:31 | 48.01205 | 14.15157 | 27498 ft | 464 kts | 245° |
| 2026-04-24 11:32 | 47.99302 | 14.09424 | 27803 ft | 466 kts | 245° |
| 2026-04-24 11:32 | 47.98328 | 14.06486 | 27967 ft | 468 kts | 245° |
| 2026-04-24 11:32 | 47.96905 | 14.02188 | 28149 ft | 467 kts | 245° |
| 2026-04-24 11:32 | 47.95481 | 13.97895 | 28342 ft | 459 kts | 245° |
| 2026-04-24 11:33 | 47.94066 | 13.93650 | 28526 ft | 456 kts | 245° |
| 2026-04-24 11:33 | 47.92657 | 13.89442 | 28189 ft | 452 kts | 245° |
| 2026-04-24 11:33 | 47.89841 | 13.81046 | 28158 ft | 454 kts | 245° |
| 2026-04-24 11:34 | 47.87012 | 13.72617 | 28159 ft | 455 kts | 245° |
| 2026-04-24 11:34 | 47.84179 | 13.64196 | 28156 ft | 455 kts | 245° |
| 2026-04-24 11:35 | 47.81348 | 13.55830 | 28154 ft | 457 kts | 245° |
| 2026-04-24 11:35 | 47.78488 | 13.47405 | 28148 ft | 456 kts | 245° |
| 2026-04-24 11:36 | 47.75621 | 13.38980 | 28144 ft | 456 kts | 245° |
| 2026-04-24 11:36 | 47.72750 | 13.30576 | 28147 ft | 456 kts | 245° |
| 2026-04-24 11:37 | 47.69861 | 13.22179 | 27548 ft | 459 kts | 245° |
| 2026-04-24 11:37 | 47.68432 | 13.18024 | 26928 ft | 455 kts | 245° |
| 2026-04-24 11:37 | 47.67005 | 13.13869 | 26402 ft | 450 kts | 245° |
| 2026-04-24 11:38 | 47.65590 | 13.09759 | 25869 ft | 445 kts | 245° |
| 2026-04-24 11:38 | 47.64188 | 13.05697 | 25354 ft | 440 kts | 244° |
| 2026-04-24 11:38 | 47.62803 | 13.01693 | 24857 ft | 435 kts | 245° |
| 2026-04-24 11:38 | 47.61431 | 12.97726 | 24344 ft | 430 kts | 244° |
| 2026-04-24 11:39 | 47.60072 | 12.93811 | 23870 ft | 424 kts | 244° |
| 2026-04-24 11:39 | 47.58730 | 12.89951 | 23350 ft | 418 kts | 244° |
| 2026-04-24 11:39 | 47.57411 | 12.86159 | 22895 ft | 411 kts | 244° |
| 2026-04-24 11:39 | 47.56131 | 12.82483 | 22448 ft | 403 kts | 244° |
| 2026-04-24 11:40 | 47.54858 | 12.78834 | 22010 ft | 396 kts | 244° |
| 2026-04-24 11:40 | 47.53600 | 12.75237 | 21563 ft | 390 kts | 244° |
| 2026-04-24 11:40 | 47.52361 | 12.71690 | 21111 ft | 386 kts | 244° |
| 2026-04-24 11:40 | 47.51137 | 12.68193 | 20674 ft | 381 kts | 244° |
| 2026-04-24 11:41 | 47.49920 | 12.64727 | 20227 ft | 378 kts | 244° |
| 2026-04-24 11:41 | 47.48714 | 12.61297 | 19782 ft | 374 kts | 244° |
| 2026-04-24 11:41 | 47.47517 | 12.57903 | 19323 ft | 371 kts | 244° |
| 2026-04-24 11:41 | 47.46331 | 12.54534 | 18897 ft | 369 kts | 244° |
| 2026-04-24 11:42 | 47.45151 | 12.51183 | 18458 ft | 366 kts | 244° |
| 2026-04-24 11:42 | 47.43996 | 12.47904 | 17988 ft | 363 kts | 244° |
| 2026-04-24 11:42 | 47.42837 | 12.44625 | 17550 ft | 358 kts | 244° |
| 2026-04-24 11:42 | 47.41690 | 12.41385 | 17126 ft | 354 kts | 244° |
| 2026-04-24 11:43 | 47.40604 | 12.38150 | 16704 ft | 349 kts | 250° |
| 2026-04-24 11:43 | 47.39924 | 12.34751 | 16300 ft | 343 kts | 262° |
| 2026-04-24 11:43 | 47.39718 | 12.31283 | 15899 ft | 336 kts | 274° |
| 2026-04-24 11:43 | 47.39942 | 12.27880 | 15506 ft | 331 kts | 281° |
| 2026-04-24 11:44 | 47.40264 | 12.24540 | 15107 ft | 327 kts | 281° |
| 2026-04-24 11:44 | 47.40577 | 12.21224 | 14727 ft | 324 kts | 280° |
| 2026-04-24 11:44 | 47.40881 | 12.17944 | 14337 ft | 321 kts | 280° |
| 2026-04-24 11:44 | 47.41178 | 12.14731 | 13948 ft | 320 kts | 280° |
| 2026-04-24 11:45 | 47.41478 | 12.11494 | 13529 ft | 317 kts | 280° |
| 2026-04-24 11:45 | 47.41775 | 12.08290 | 13126 ft | 313 kts | 280° |
| 2026-04-24 11:45 | 47.42068 | 12.05116 | 12736 ft | 310 kts | 280° |
| 2026-04-24 11:45 | 47.42360 | 12.01977 | 12347 ft | 307 kts | 280° |
| 2026-04-24 11:46 | 47.42472 | 11.98842 | 11954 ft | 307 kts | 266° |
| 2026-04-24 11:46 | 47.41995 | 11.95771 | 11554 ft | 308 kts | 250° |
| 2026-04-24 11:46 | 47.40946 | 11.93020 | 11136 ft | 310 kts | 233° |
| 2026-04-24 11:46 | 47.39402 | 11.90802 | 10708 ft | 311 kts | 216° |
| 2026-04-24 11:47 | 47.37596 | 11.89171 | 10481 ft | 303 kts | 212° |
| 2026-04-24 11:47 | 47.35819 | 11.87609 | 10369 ft | 291 kts | 214° |
| 2026-04-24 11:47 | 47.34313 | 11.85749 | 10244 ft | 276 kts | 231° |
| 2026-04-24 11:47 | 47.33223 | 11.83486 | 10090 ft | 268 kts | 244° |
| 2026-04-24 11:48 | 47.32542 | 11.80946 | 9707 ft | 263 kts | 259° |
| 2026-04-24 11:48 | 47.32180 | 11.78337 | 9653 ft | 259 kts | 261° |
| 2026-04-24 11:48 | 47.31831 | 11.75760 | 9285 ft | 260 kts | 261° |
| 2026-04-24 11:48 | 47.31491 | 11.73085 | 8480 ft | 269 kts | 262° |
| 2026-04-24 11:49 | 47.31168 | 11.70357 | 7816 ft | 276 kts | 262° |
| 2026-04-24 11:49 | 47.30887 | 11.67672 | 7828 ft | 263 kts | 264° |
| 2026-04-24 11:49 | 47.30665 | 11.65059 | 7783 ft | 249 kts | 264° |
| 2026-04-24 11:49 | 47.30250 | 11.62588 | 7344 ft | 250 kts | 250° |
| 2026-04-24 11:50 | 47.29557 | 11.60213 | 6808 ft | 255 kts | 251° |
| 2026-04-24 11:50 | 47.29122 | 11.57671 | 6273 ft | 258 kts | 262° |
| 2026-04-24 11:50 | 47.28904 | 11.55018 | 5554 ft | 267 kts | 260° |
| 2026-04-24 11:50 | 47.28441 | 11.52304 | 4687 ft | 279 kts | 255° |
| 2026-04-24 11:51 | 47.27904 | 11.49597 | 4203 ft | 282 kts | 256° |
| 2026-04-24 11:51 | 47.27409 | 11.46855 | 4014 ft | 273 kts | 257° |
| 2026-04-24 11:51 | 47.27062 | 11.44305 | 4332 ft | 243 kts | 261° |
| 2026-04-24 11:51 | 47.26796 | 11.41919 | 4336 ft | 230 kts | 263° |
| 2026-04-24 11:52 | 47.26574 | 11.39605 | 4853 ft | 233 kts | 264° |
| 2026-04-24 11:52 | 47.26325 | 11.37087 | 5024 ft | 268 kts | 263° |
| 2026-04-24 11:52 | 47.26077 | 11.34249 | 5014 ft | 282 kts | 263° |
| 2026-04-24 11:52 | 47.25836 | 11.31506 | 5199 ft | 259 kts | 263° |
| 2026-04-24 11:53 | 47.25682 | 11.28915 | 5838 ft | 251 kts | 274° |
| 2026-04-24 11:53 | 47.26082 | 11.26436 | 6635 ft | 249 kts | 291° |
| 2026-04-24 11:53 | 47.26713 | 11.24065 | 7413 ft | 249 kts | 293° |
| 2026-04-24 11:53 | 47.27354 | 11.21736 | 8141 ft | 249 kts | 293° |
| 2026-04-24 11:54 | 47.28059 | 11.19407 | 8849 ft | 250 kts | 305° |
| 2026-04-24 11:54 | 47.29206 | 11.17488 | 9540 ft | 250 kts | 316° |
| 2026-04-24 11:54 | 47.30486 | 11.15736 | 10149 ft | 253 kts | 318° |
| 2026-04-24 11:54 | 47.31799 | 11.13979 | 10686 ft | 257 kts | 319° |
| 2026-04-24 11:55 | 47.33123 | 11.12194 | 11286 ft | 259 kts | 318° |
| 2026-04-24 11:55 | 47.34456 | 11.10377 | 11494 ft | 262 kts | 319° |
| 2026-04-24 11:55 | 47.35744 | 11.08473 | 11537 ft | 263 kts | 307° |
| 2026-04-24 11:55 | 47.36529 | 11.06044 | 11542 ft | 266 kts | 283° |
| 2026-04-24 11:56 | 47.36530 | 11.03328 | 11544 ft | 269 kts | 257° |
| 2026-04-24 11:56 | 47.35954 | 11.00689 | 11542 ft | 271 kts | 253° |
| 2026-04-24 11:56 | 47.35366 | 10.98088 | 11544 ft | 271 kts | 257° |
| 2026-04-24 11:56 | 47.35043 | 10.95385 | 11540 ft | 267 kts | 268° |
| 2026-04-24 11:57 | 47.35082 | 10.92656 | 11542 ft | 267 kts | 279° |
| 2026-04-24 11:57 | 47.35471 | 10.89988 | 11540 ft | 266 kts | 288° |
| 2026-04-24 11:57 | 47.35975 | 10.87374 | 11542 ft | 265 kts | 288° |
| 2026-04-24 11:57 | 47.36469 | 10.84756 | 11535 ft | 265 kts | 287° |
| 2026-04-24 11:58 | 47.36959 | 10.82136 | 11542 ft | 266 kts | 287° |
| 2026-04-24 11:58 | 47.37449 | 10.79506 | 11542 ft | 265 kts | 287° |
| 2026-04-24 11:58 | 47.37937 | 10.76882 | 11544 ft | 266 kts | 287° |
| 2026-04-24 11:58 | 47.38422 | 10.74286 | 11547 ft | 266 kts | 287° |
| 2026-04-24 11:59 | 47.38916 | 10.71663 | 11543 ft | 265 kts | 289° |
| 2026-04-24 11:59 | 47.39810 | 10.69357 | 11545 ft | 259 kts | 321° |
| 2026-04-24 11:59 | 47.41299 | 10.67864 | 11548 ft | 261 kts | 326° |
| 2026-04-24 11:59 | 47.42470 | 10.65862 | 11546 ft | 263 kts | 292° |
| 2026-04-24 12:00 | 47.42642 | 10.63198 | 11549 ft | 267 kts | 257° |
| 2026-04-24 12:00 | 47.41742 | 10.60804 | 11552 ft | 273 kts | 227° |
| 2026-04-24 12:00 | 47.40236 | 10.59076 | 11552 ft | 277 kts | 209° |
| 2026-04-24 12:00 | 47.38425 | 10.58088 | 11550 ft | 280 kts | 189° |
| 2026-04-24 12:01 | 47.36503 | 10.57790 | 11551 ft | 281 kts | 185° |
| 2026-04-24 12:01 | 47.34557 | 10.57576 | 11549 ft | 280 kts | 185° |
| 2026-04-24 12:01 | 47.32625 | 10.57425 | 11566 ft | 275 kts | 180° |
| 2026-04-24 12:01 | 47.30793 | 10.58108 | 11541 ft | 273 kts | 149° |
| 2026-04-24 12:02 | 47.29419 | 10.59978 | 11547 ft | 270 kts | 120° |
| 2026-04-24 12:02 | 47.28817 | 10.62542 | 11547 ft | 264 kts | 92° |
| 2026-04-24 12:02 | 47.28875 | 10.65247 | 11547 ft | 264 kts | 85° |
| 2026-04-24 12:02 | 47.28989 | 10.67936 | 11544 ft | 263 kts | 84° |
| 2026-04-24 12:03 | 47.29105 | 10.70629 | 11538 ft | 263 kts | 84° |
| 2026-04-24 12:03 | 47.29216 | 10.73310 | 11533 ft | 262 kts | 84° |
| 2026-04-24 12:03 | 47.29322 | 10.75955 | 11535 ft | 262 kts | 83° |
| 2026-04-24 12:03 | 47.29430 | 10.78635 | 11390 ft | 265 kts | 84° |
| 2026-04-24 12:04 | 47.29541 | 10.81371 | 10669 ft | 273 kts | 86° |
| 2026-04-24 12:04 | 47.29603 | 10.84179 | 10059 ft | 274 kts | 87° |
| 2026-04-24 12:04 | 47.29611 | 10.86907 | 9678 ft | 260 kts | 88° |
| 2026-04-24 12:04 | 47.29611 | 10.89535 | 9234 ft | 254 kts | 88° |
| 2026-04-24 12:05 | 47.29656 | 10.92111 | 8813 ft | 250 kts | 82° |
| 2026-04-24 12:05 | 47.29792 | 10.94648 | 8528 ft | 247 kts | 80° |
| 2026-04-24 12:05 | 47.29965 | 10.97161 | 8198 ft | 246 kts | 82° |
| 2026-04-24 12:05 | 47.30079 | 10.99631 | 7871 ft | 244 kts | 84° |
| 2026-04-24 12:06 | 47.30132 | 11.02126 | 7449 ft | 246 kts | 85° |
| 2026-04-24 12:06 | 47.30157 | 11.04642 | 7049 ft | 244 kts | 85° |
| 2026-04-24 12:06 | 47.30151 | 11.07099 | 6859 ft | 237 kts | 91° |
| 2026-04-24 12:06 | 47.29890 | 11.09491 | 6726 ft | 238 kts | 101° |
| 2026-04-24 12:07 | 47.29371 | 11.11789 | 6491 ft | 236 kts | 107° |
| 2026-04-24 12:07 | 47.28800 | 11.14025 | 6286 ft | 229 kts | 107° |
| 2026-04-24 12:07 | 47.28263 | 11.16153 | 6115 ft | 216 kts | 107° |
| 2026-04-24 12:07 | 47.27745 | 11.18225 | 5706 ft | 218 kts | 108° |
| 2026-04-24 12:08 | 47.27176 | 11.20297 | 5109 ft | 224 kts | 110° |
| 2026-04-24 12:08 | 47.26550 | 11.22395 | 4501 ft | 224 kts | 111° |
| 2026-04-24 12:08 | 47.25957 | 11.24535 | 3787 ft | 227 kts | 107° |
| 2026-04-24 12:08 | 47.25534 | 11.26748 | 3127 ft | 223 kts | 97° |
| 2026-04-24 12:09 | 47.25473 | 11.28961 | 2717 ft | 210 kts | 82° |
| 2026-04-24 12:09 | 47.25666 | 11.30998 | 2393 ft | 194 kts | 83° |
| 2026-04-24 12:09 | 47.25844 | 11.32902 | 2018 ft | 178 kts | 77° |
| 2026-04-24 12:09 | 48.11466 | 16.57014 | 1936 ft | 9 kts | 206° |